createdAt,value
2022-08-26T00:00:59.303Z,98775.97
2022-08-26T00:03:26.592Z,98774.06
2022-08-26T00:05:54.464Z,98768.44
2022-08-26T00:08:21.515Z,98769.72
2022-08-26T00:10:48.937Z,98763.88
2022-08-26T00:13:15.810Z,98768.00
2022-08-26T00:15:47.205Z,98766.72
2022-08-26T00:18:21.734Z,98770.47
2022-08-26T00:20:49.311Z,98762.97
2022-08-26T00:23:16.178Z,98772.69
2022-08-26T00:25:43.023Z,98768.72
2022-08-26T00:28:10.860Z,98767.44
2022-08-26T00:30:38.209Z,98766.19
2022-08-26T00:33:07.142Z,98772.59
2022-08-26T00:35:34.923Z,98771.97
2022-08-26T00:38:03.108Z,98766.59
2022-08-26T00:40:35.581Z,98757.22
2022-08-26T00:43:02.948Z,98757.81
2022-08-26T00:45:54.171Z,98761.69
2022-08-26T00:48:23.339Z,98765.00
2022-08-26T00:50:55.979Z,98760.59
2022-08-26T00:53:27.815Z,98760.81
2022-08-26T00:56:10.238Z,98754.97
2022-08-26T00:58:43.118Z,98765.09
2022-08-26T01:01:11.071Z,98759.69
2022-08-26T01:03:38.463Z,98760.09
2022-08-26T01:06:13.164Z,98760.09
2022-08-26T01:08:40.603Z,98768.38
2022-08-26T01:11:08.249Z,98761.53
2022-08-26T01:13:36.666Z,98758.00
2022-08-26T01:16:04.381Z,98762.94
2022-08-26T01:18:31.739Z,98762.94
2022-08-26T01:20:58.342Z,98771.19
2022-08-26T01:23:29.186Z,98757.97
2022-08-26T01:25:59.336Z,98761.69
2022-08-26T01:28:28.768Z,98759.16
2022-08-26T01:30:57.411Z,98758.16
2022-08-26T01:33:28.635Z,98758.34
2022-08-26T01:35:55.545Z,98754.63
2022-08-26T01:38:23.647Z,98763.72
2022-08-26T01:40:50.788Z,98758.75
2022-08-26T01:43:22.164Z,98762.84
2022-08-26T01:45:49.651Z,98761.56
2022-08-26T01:48:19.411Z,98766.75
2022-08-26T01:50:46.556Z,98770.47
2022-08-26T01:53:16.639Z,98771.69
2022-08-26T01:55:45.373Z,98772.34
2022-08-26T01:58:15.432Z,98757.00
2022-08-26T02:00:42.260Z,98760.72
2022-08-26T02:03:17.490Z,98757.84
2022-08-26T02:06:06.500Z,98759.91
2022-08-26T02:08:41.277Z,98759.25
2022-08-26T02:11:08.110Z,98751.38
2022-08-26T02:13:37.969Z,98753.44
2022-08-26T02:16:05.022Z,98754.84
2022-08-26T02:18:36.764Z,98757.34
2022-08-26T02:21:03.890Z,98755.69
2022-08-26T02:23:33.627Z,98757.72
2022-08-26T02:26:07.389Z,98750.69
2022-08-26T02:28:37.422Z,98754.41
2022-08-26T02:31:04.203Z,98753.78
2022-08-26T02:33:31.859Z,98752.28
2022-08-26T02:35:58.700Z,98746.47
2022-08-26T02:38:26.193Z,98740.63
2022-08-26T02:40:52.863Z,98744.56
2022-08-26T02:43:32.839Z,98743.06
2022-08-26T02:46:02.000Z,98741.81
2022-08-26T02:48:28.924Z,98743.00
2022-08-26T02:50:55.348Z,98746.63
2022-08-26T03:10:35.358Z,98739.03
2022-08-26T03:13:05.217Z,98742.94
2022-08-26T03:15:32.427Z,98743.31
2022-08-26T03:18:01.576Z,98747.41
2022-08-26T03:20:28.068Z,98738.06
2022-08-26T03:22:56.136Z,98739.44
2022-08-26T03:25:23.211Z,98735.50
2022-08-26T03:27:50.289Z,98738.94
2022-08-26T03:30:35.342Z,98739.28
2022-08-26T03:33:02.410Z,98736.34
2022-08-26T03:35:28.936Z,98733.38
2022-08-26T03:37:55.873Z,98724.66
2022-08-26T03:40:22.709Z,98729.78
2022-08-26T03:42:49.684Z,98725.63
2022-08-26T03:45:17.106Z,98732.34
2022-08-26T03:47:44.553Z,98724.84
2022-08-26T03:50:12.650Z,98733.94
2022-08-26T03:52:43.519Z,98725.22
2022-08-26T03:55:10.954Z,98728.28
2022-08-26T03:57:37.386Z,98722.63
2022-08-26T04:00:05.531Z,98725.69
2022-08-26T04:02:32.046Z,98724.84
2022-08-26T04:04:58.450Z,98729.78
2022-08-26T04:07:26.022Z,98724.56
2022-08-26T04:09:56.249Z,98721.44
2022-08-26T04:12:23.029Z,98723.28
2022-08-26T04:14:51.681Z,98722.81
2022-08-26T04:17:20.228Z,98732.91
2022-08-26T04:19:52.765Z,98725.88
2022-08-26T04:22:24.035Z,98718.66
2022-08-26T04:24:51.617Z,98727.56
2022-08-26T04:27:18.069Z,98725.22
2022-08-26T04:29:46.253Z,98719.00
2022-08-26T04:32:14.488Z,98718.84
2022-08-26T04:34:43.356Z,98714.31
2022-08-26T04:37:11.359Z,98713.47
2022-08-26T04:39:38.194Z,98722.34
2022-08-26T04:42:05.949Z,98723.19
2022-08-26T04:44:34.758Z,98722.34
2022-08-26T04:47:01.199Z,98726.06
2022-08-26T04:49:35.347Z,98726.72
2022-08-26T04:52:02.253Z,98730.84
2022-08-26T04:54:29.002Z,98721.13
2022-08-26T04:56:55.539Z,98725.50
2022-08-26T04:59:22.629Z,98735.22
2022-08-26T05:01:52.015Z,98728.19
2022-08-26T05:04:19.427Z,98731.53
2022-08-26T05:06:46.572Z,98733.19
2022-08-26T05:09:14.256Z,98736.50
2022-08-26T05:11:41.801Z,98733.81
2022-08-26T05:14:08.345Z,98737.81
2022-08-26T05:16:34.894Z,98737.44
2022-08-26T05:19:01.557Z,98743.28
2022-08-26T05:21:29.141Z,98745.41
2022-08-26T05:23:56.343Z,98740.03
2022-08-26T05:26:24.514Z,98749.09
2022-08-26T05:28:54.756Z,98740.03
2022-08-26T05:31:27.099Z,98746.25
2022-08-26T05:33:54.064Z,98746.34
2022-08-26T05:36:22.309Z,98754.66
2022-08-26T05:38:49.094Z,98745.25
2022-08-26T05:41:34.295Z,98751.53
2022-08-26T05:44:05.935Z,98748.31
2022-08-26T05:46:33.408Z,98752.09
2022-08-26T05:49:00.986Z,98753.78
2022-08-26T05:51:27.441Z,98748.66
2022-08-26T05:53:57.094Z,98754.31
2022-08-26T05:56:27.953Z,98753.53
2022-08-26T05:58:55.589Z,98754.81
2022-08-26T06:01:25.607Z,98764.56
2022-08-26T06:03:52.921Z,98754.91
2022-08-26T06:06:27.685Z,98753.06
2022-08-26T06:08:55.633Z,98755.81
2022-08-26T06:11:26.181Z,98747.16
2022-08-26T06:13:53.608Z,98750.94
2022-08-26T06:16:22.341Z,98754.75
2022-08-26T06:18:50.629Z,98756.63
2022-08-26T06:21:27.661Z,98756.09
2022-08-26T06:24:14.490Z,98756.19
2022-08-26T06:26:42.803Z,98757.59
2022-08-26T06:29:09.447Z,98760.03
2022-08-26T06:31:36.374Z,98753.72
2022-08-26T06:34:09.907Z,98754.06
2022-08-26T06:36:37.207Z,98754.81
2022-08-26T06:39:09.414Z,98759.91
2022-08-26T06:41:40.101Z,98763.53
2022-08-26T06:44:09.529Z,98759.28
2022-08-26T06:46:36.634Z,98757.69
2022-08-26T06:49:03.183Z,98755.28
2022-08-26T06:51:34.584Z,98758.28
2022-08-26T06:54:02.065Z,98751.69
2022-08-26T06:56:32.647Z,98741.34
2022-08-26T06:58:59.095Z,98744.22
2022-08-26T07:01:29.921Z,98741.44
2022-08-26T07:03:59.220Z,98743.69
2022-08-26T07:06:27.381Z,98746.59
2022-08-26T07:08:54.793Z,98751.03
2022-08-26T07:11:21.230Z,98743.69
2022-08-26T07:13:47.747Z,98750.84
2022-08-26T07:16:15.161Z,98747.28
2022-08-26T07:18:42.421Z,98744.72
2022-08-26T07:21:13.008Z,98734.00
2022-08-26T07:23:41.385Z,98731.06
2022-08-26T07:26:10.500Z,98740.94
2022-08-26T07:28:37.010Z,98739.34
2022-08-26T07:31:04.841Z,98740.81
2022-08-26T07:33:36.639Z,98742.97
2022-08-26T07:36:04.301Z,98737.34
2022-08-26T07:38:30.776Z,98739.06
2022-08-26T07:41:01.810Z,98744.25
2022-08-26T07:43:29.277Z,98736.63
2022-08-26T07:45:55.942Z,98741.97
2022-08-26T07:48:22.458Z,98732.06
2022-08-26T07:50:50.579Z,98730.84
2022-08-26T07:53:18.196Z,98737.94
2022-08-26T07:55:46.116Z,98736.56
2022-08-26T07:58:12.641Z,98727.97
2022-08-26T08:00:39.247Z,98735.66
2022-08-26T08:03:06.249Z,98730.09
2022-08-26T08:05:34.488Z,98721.66
2022-08-26T08:08:27.103Z,98727.84
2022-08-26T08:10:48.847Z,98724.03
2022-08-26T08:13:15.680Z,98723.78
2022-08-26T08:15:42.437Z,98721.25
2022-08-26T08:18:15.673Z,98725.66
2022-08-26T08:20:54.438Z,98723.97
2022-08-26T08:23:29.441Z,98726.00
2022-08-26T08:26:06.834Z,98723.50
2022-08-26T08:28:35.212Z,98713.16
2022-08-26T08:31:02.263Z,98709.94
2022-08-26T08:33:32.475Z,98705.16
2022-08-26T08:36:00.037Z,98703.53
2022-08-26T08:38:26.938Z,98704.22
2022-08-26T08:40:54.027Z,98700.34
2022-08-26T08:43:35.123Z,98705.56
2022-08-26T08:46:07.916Z,98706.38
2022-08-26T08:48:37.572Z,98708.66
2022-08-26T08:51:08.175Z,98697.16
2022-08-26T08:53:39.314Z,98701.31
2022-08-26T08:56:25.749Z,98684.00
2022-08-26T08:58:52.158Z,98691.81
2022-08-26T09:01:25.816Z,98685.66
2022-08-26T09:03:55.263Z,98684.09
2022-08-26T09:06:21.870Z,98684.78
2022-08-26T09:08:50.575Z,98686.69
2022-08-26T09:11:17.784Z,98691.78
2022-08-26T09:13:49.014Z,98680.41
2022-08-26T09:16:20.285Z,98677.91
2022-08-26T09:18:55.435Z,98673.31
2022-08-26T09:21:25.610Z,98674.97
2022-08-26T09:23:53.673Z,98669.66
2022-08-26T09:26:29.200Z,98662.78
2022-08-26T09:29:04.293Z,98668.91
2022-08-26T09:31:35.780Z,98664.16
2022-08-26T09:34:17.341Z,98663.16
2022-08-26T09:36:48.865Z,98664.00
2022-08-26T09:39:24.822Z,98658.50
2022-08-26T09:42:03.204Z,98658.56
2022-08-26T09:44:30.577Z,98652.81
2022-08-26T09:46:59.653Z,98647.34
2022-08-26T09:49:30.713Z,98644.03
2022-08-26T09:52:05.582Z,98637.06
2022-08-26T09:54:33.445Z,98632.63
2022-08-26T09:57:20.203Z,98629.50
2022-08-26T09:59:46.915Z,98627.94
2022-08-26T10:02:25.494Z,98623.50
2022-08-26T10:04:54.284Z,98609.31
2022-08-26T10:07:40.378Z,98607.03
2022-08-26T10:10:09.455Z,98611.66
2022-08-26T10:12:41.727Z,98611.22
2022-08-26T10:15:09.882Z,98601.34
2022-08-26T10:17:41.496Z,98602.53
2022-08-26T10:20:22.676Z,98597.69
2022-08-26T10:22:58.673Z,98595.91
2022-08-26T10:25:29.039Z,98593.84
2022-08-26T10:28:05.775Z,98594.19
2022-08-26T10:30:38.670Z,98582.38
2022-08-26T10:33:11.040Z,98577.31
2022-08-26T10:35:44.633Z,98569.06
2022-08-26T10:38:14.470Z,98559.69
2022-08-26T10:40:50.110Z,98554.81
2022-08-26T10:43:30.897Z,98555.53
2022-08-26T10:46:00.673Z,98560.03
2022-08-26T10:48:42.831Z,98551.56
2022-08-26T10:51:11.402Z,98551.91
2022-08-26T10:53:44.505Z,98534.44
2022-08-26T10:56:15.652Z,98543.25
2022-08-26T10:58:51.465Z,98538.97
2022-08-26T11:01:40.793Z,98539.03
2022-08-26T11:04:07.520Z,98538.63
2022-08-26T11:06:34.445Z,98531.44
2022-08-26T11:09:08.882Z,98526.75
2022-08-26T11:11:45.347Z,98529.28
2022-08-26T11:14:13.281Z,98526.53
2022-08-26T11:16:43.382Z,98520.53
2022-08-26T11:19:11.806Z,98527.09
2022-08-26T11:21:50.656Z,98526.63
2022-08-26T11:24:38.758Z,98511.88
2022-08-26T11:27:28.285Z,98514.09
2022-08-26T11:29:56.258Z,98511.34
2022-08-26T11:32:52.208Z,98502.28
2022-08-26T11:35:21.816Z,98511.38
2022-08-26T11:37:48.376Z,98505.38
2022-08-26T11:40:20.281Z,98503.16
2022-08-26T11:42:52.339Z,98495.72
2022-08-26T11:45:22.881Z,98498.72
2022-08-26T11:47:50.002Z,98493.00
2022-08-26T11:50:26.172Z,98492.69
2022-08-26T11:53:01.684Z,98488.47
2022-08-26T11:55:28.763Z,98492.25
2022-08-26T11:57:57.861Z,98491.34
2022-08-26T12:00:26.530Z,98494.09
2022-08-26T12:02:53.486Z,98482.16
2022-08-26T12:05:25.685Z,98466.88
2022-08-26T12:07:56.402Z,98464.66
2022-08-26T12:10:30.074Z,98480.00
2022-08-26T12:12:58.702Z,98484.69
2022-08-26T12:15:25.952Z,98481.91
2022-08-26T12:17:54.431Z,98481.31
2022-08-26T12:20:54.161Z,98485.44
2022-08-26T12:23:22.090Z,98484.31
2022-08-26T12:25:49.759Z,98488.94
2022-08-26T12:28:16.517Z,98488.56
2022-08-26T12:31:05.377Z,98491.81
2022-08-26T12:33:33.923Z,98501.88
2022-08-26T12:36:02.047Z,98503.28
2022-08-26T12:38:29.162Z,98503.41
2022-08-26T12:40:56.946Z,98498.56
2022-08-26T12:43:56.454Z,98514.34
2022-08-26T12:46:26.140Z,98528.19
2022-08-26T12:48:52.772Z,98553.03
2022-08-26T12:51:24.843Z,98560.03
2022-08-26T12:53:51.731Z,98583.91
2022-08-26T12:56:20.767Z,98596.25
2022-08-26T12:58:59.904Z,98620.50
2022-08-26T13:01:26.501Z,98639.69
2022-08-26T13:03:53.361Z,98650.16
2022-08-26T13:06:22.854Z,98647.34
2022-08-26T13:08:54.525Z,98640.41
2022-08-26T13:11:22.836Z,98626.84
2022-08-26T13:13:51.925Z,98619.56
2022-08-26T13:16:20.888Z,98630.63
2022-08-26T13:18:48.503Z,98617.56
2022-08-26T13:21:19.308Z,98612.06
2022-08-26T13:23:46.340Z,98607.16
2022-08-26T13:26:12.818Z,98592.69
2022-08-26T13:28:39.353Z,98579.56
2022-08-26T13:31:06.227Z,98576.81
2022-08-26T13:33:33.396Z,98562.53
2022-08-26T13:36:00.874Z,98564.53
2022-08-26T13:38:33.159Z,98557.06
2022-08-26T13:41:02.594Z,98560.03
2022-08-26T13:43:29.685Z,98549.25
2022-08-26T13:45:56.496Z,98537.75
2022-08-26T13:48:23.683Z,98530.69
2022-08-26T13:50:50.295Z,98525.97
2022-08-26T13:53:17.144Z,98516.19
2022-08-26T13:55:43.664Z,98520.72
2022-08-26T13:58:10.624Z,98508.25
2022-08-26T14:00:39.743Z,98506.16
2022-08-26T14:03:09.186Z,98514.06
2022-08-26T14:05:39.178Z,98512.66
2022-08-26T14:08:05.800Z,98514.72
2022-08-26T14:10:32.382Z,98509.72
2022-08-26T14:12:59.035Z,98498.03
2022-08-26T14:15:25.773Z,98504.50
2022-08-26T14:17:54.104Z,98511.34
2022-08-26T14:20:24.124Z,98513.59
2022-08-26T14:23:12.653Z,98529.75
2022-08-26T14:25:37.208Z,98536.16
2022-08-26T14:28:03.893Z,98533.66
2022-08-26T14:30:30.486Z,98538.00
2022-08-26T14:32:59.123Z,98545.72
2022-08-26T14:35:27.551Z,98547.34
2022-08-26T14:37:54.498Z,98549.41
2022-08-26T14:40:22.245Z,98568.63
2022-08-26T14:42:52.784Z,98582.97
2022-08-26T14:45:22.606Z,98584.22
2022-08-26T14:47:49.606Z,98565.09
2022-08-26T14:50:18.165Z,98568.78
2022-08-26T14:53:03.467Z,98556.69
2022-08-26T14:55:32.659Z,98537.06
2022-08-26T14:57:59.172Z,98523.66
2022-08-26T15:00:25.779Z,98515.66
2022-08-26T15:02:52.490Z,98524.66
2022-08-26T15:05:19.260Z,98523.88
2022-08-26T15:07:45.755Z,98530.75
2022-08-26T15:10:14.023Z,98522.56
2022-08-26T15:12:41.179Z,98521.97
2022-08-26T15:15:08.776Z,98521.34
2022-08-26T15:17:35.802Z,98522.50
2022-08-26T15:20:02.834Z,98521.88
2022-08-26T15:22:29.895Z,98520.63
2022-08-26T15:24:57.487Z,98522.50
2022-08-26T15:27:24.036Z,98523.75
2022-08-26T15:29:50.627Z,98510.34
2022-08-26T15:32:17.204Z,98505.91
2022-08-26T15:34:43.893Z,98511.00
2022-08-26T15:37:10.424Z,98508.16
2022-08-26T15:39:36.917Z,98501.81
2022-08-26T15:42:03.651Z,98495.69
2022-08-26T15:44:30.240Z,98487.59
2022-08-26T15:46:58.758Z,98486.22
2022-08-26T15:49:25.929Z,98481.97
2022-08-26T15:51:52.724Z,98480.47
2022-08-26T15:54:21.159Z,98473.16
2022-08-26T15:56:50.652Z,98469.75
2022-08-26T15:59:17.827Z,98480.13
2022-08-26T16:01:44.666Z,98493.13
2022-08-26T16:04:11.566Z,98491.56
2022-08-26T16:06:39.412Z,98490.50
2022-08-26T16:09:06.595Z,98493.66
2022-08-26T16:11:34.259Z,98492.84
2022-08-26T16:14:00.801Z,98483.84
2022-08-26T16:16:27.316Z,98485.75
2022-08-26T16:18:54.094Z,98491.16
2022-08-26T16:21:24.781Z,98491.16
2022-08-26T16:23:51.857Z,98504.25
2022-08-26T16:26:19.675Z,98504.56
2022-08-26T16:28:46.220Z,98510.97
2022-08-26T16:31:13.161Z,98514.72
2022-08-26T16:33:39.946Z,98506.31
2022-08-26T16:36:07.149Z,98501.94
2022-08-26T16:38:34.095Z,98503.00
2022-08-26T16:41:01.184Z,98509.03
2022-08-26T16:43:28.336Z,98505.91
2022-08-26T16:45:54.844Z,98509.97
2022-08-26T16:48:21.430Z,98512.75
2022-08-26T16:50:48.005Z,98516.28
2022-08-26T16:55:50.200Z,98514.03
2022-08-26T16:58:17.182Z,98511.94
2022-08-26T17:00:44.119Z,98524.88
2022-08-26T17:03:10.668Z,98516.28
2022-08-26T17:05:37.410Z,98513.13
2022-08-26T17:08:04.592Z,98529.47
2022-08-26T17:10:31.304Z,98521.31
2022-08-26T17:12:57.919Z,98528.47
2022-08-26T17:15:25.442Z,98538.44
2022-08-26T17:17:52.633Z,98530.09
2022-08-26T17:20:19.988Z,98530.56
2022-08-26T17:22:47.614Z,98529.72
2022-08-26T17:25:17.150Z,98534.06
2022-08-26T17:27:43.982Z,98536.75
2022-08-26T17:30:10.738Z,98542.56
2022-08-26T17:32:37.210Z,98544.69
2022-08-26T17:35:04.345Z,98535.63
2022-08-26T17:37:31.205Z,98547.16
2022-08-26T17:39:58.463Z,98539.63
2022-08-26T17:42:31.760Z,98531.28
2022-08-26T17:44:58.493Z,98537.38
2022-08-26T17:47:25.069Z,98545.91
2022-08-26T17:49:51.548Z,98554.03
2022-08-26T17:52:18.023Z,98552.75
2022-08-26T17:54:44.475Z,98563.38
2022-08-26T17:57:10.957Z,98568.00
2022-08-26T17:59:38.695Z,98567.53
2022-08-26T18:02:07.406Z,98571.59
2022-08-26T18:04:39.821Z,98568.91
2022-08-26T18:07:06.303Z,98562.09
2022-08-26T18:09:33.217Z,98562.72
2022-08-26T18:12:00.292Z,98567.75
2022-08-26T18:14:26.942Z,98562.34
2022-08-26T18:16:53.622Z,98566.09
2022-08-26T18:19:20.054Z,98571.09
2022-08-26T18:21:46.718Z,98571.09
2022-08-26T18:24:14.197Z,98560.72
2022-08-26T18:26:41.458Z,98563.88
2022-08-26T18:29:08.103Z,98569.56
2022-08-26T18:31:34.967Z,98571.03
2022-08-26T18:34:02.231Z,98576.03
2022-08-26T18:36:33.314Z,98572.53
2022-08-26T18:39:00.296Z,98580.47
2022-08-26T18:41:30.522Z,98583.81
2022-08-26T18:43:57.489Z,98587.56
2022-08-26T18:46:25.335Z,98585.09
2022-08-26T18:48:53.317Z,98585.09
2022-08-26T18:51:21.753Z,98581.56
2022-08-26T18:53:48.374Z,98584.47
2022-08-26T18:56:18.075Z,98582.81
2022-08-26T18:58:45.297Z,98585.34
2022-08-26T19:01:12.231Z,98591.97
2022-08-26T19:03:38.788Z,98586.78
2022-08-26T19:06:05.296Z,98582.22
2022-08-26T19:08:31.914Z,98588.66
2022-08-26T19:10:59.403Z,98587.22
2022-08-26T19:13:26.663Z,98583.50
2022-08-26T19:15:53.134Z,98588.91
2022-08-26T19:18:19.976Z,98593.47
2022-08-26T19:20:47.834Z,98590.13
2022-08-26T19:23:30.507Z,98592.63
2022-08-26T19:25:57.808Z,98595.94
2022-08-26T19:28:24.291Z,98598.03
2022-08-26T19:30:53.106Z,98595.16
2022-08-26T19:33:19.934Z,98608.00
2022-08-26T19:35:46.421Z,98602.41
2022-08-26T19:38:12.985Z,98605.13
2022-08-26T19:40:39.609Z,98605.13
2022-08-26T19:43:06.507Z,98598.06
2022-08-26T19:45:33.620Z,98602.41
2022-08-26T19:48:00.154Z,98602.63
2022-08-26T19:50:28.408Z,98601.19
2022-08-26T19:52:55.022Z,98608.44
2022-08-26T19:55:22.546Z,98598.50
2022-08-26T19:57:50.257Z,98593.09
2022-08-26T20:00:18.432Z,98584.56
2022-08-26T20:02:44.885Z,98587.69
2022-08-26T20:05:12.680Z,98585.56
2022-08-26T20:07:39.141Z,98581.44
2022-08-26T20:10:06.802Z,98581.63
2022-08-26T20:12:35.569Z,98583.91
2022-08-26T20:15:05.077Z,98596.13
2022-08-26T20:17:32.003Z,98590.97
2022-08-26T20:20:26.950Z,98588.03
2022-08-26T20:22:59.641Z,98594.84
2022-08-26T20:25:26.232Z,98595.88
2022-08-26T20:27:52.752Z,98590.09
2022-08-26T20:30:19.361Z,98594.00
2022-08-26T20:32:45.860Z,98592.13
2022-08-26T20:35:13.604Z,98589.44
2022-08-26T20:37:40.816Z,98590.28
2022-08-26T20:40:09.047Z,98595.03
2022-08-26T20:42:35.740Z,98600.41
2022-08-26T20:45:02.776Z,98608.06
2022-08-26T20:47:29.565Z,98606.41
2022-08-26T20:49:56.223Z,98603.28
2022-08-26T20:52:22.734Z,98626.88
2022-08-26T20:54:49.287Z,98625.63
2022-08-26T20:57:15.807Z,98624.38
2022-08-26T20:59:43.564Z,98629.56
2022-08-26T21:02:10.151Z,98637.66
2022-08-26T21:04:36.713Z,98637.00
2022-08-26T21:07:03.334Z,98643.25
2022-08-26T21:09:31.539Z,98644.50
2022-08-26T21:11:59.244Z,98652.56
2022-08-26T21:14:27.961Z,98651.72
2022-08-26T21:16:54.646Z,98646.53
2022-08-26T21:19:21.335Z,98643.59
2022-08-26T21:21:48.682Z,98639.66
2022-08-26T21:24:15.901Z,98653.31
2022-08-26T21:26:42.476Z,98650.81
2022-08-26T21:29:09.982Z,98654.53
2022-08-26T21:31:40.016Z,98648.50
2022-08-26T21:34:08.936Z,98654.09
2022-08-26T21:36:35.409Z,98667.34
2022-08-26T21:39:01.990Z,98664.47
2022-08-26T21:41:28.847Z,98665.72
2022-08-26T21:43:58.022Z,98666.28
2022-08-26T21:46:25.687Z,98665.22
2022-08-26T21:49:02.825Z,98661.91
2022-08-26T21:51:31.211Z,98667.03
2022-08-26T21:53:58.562Z,98669.72
2022-08-26T21:56:27.085Z,98669.72
2022-08-26T21:58:55.039Z,98675.09
2022-08-26T22:01:29.565Z,98668.47
2022-08-26T22:03:56.309Z,98672.97
2022-08-26T22:06:24.628Z,98673.38
2022-08-26T22:08:51.950Z,98669.66
2022-08-26T22:11:19.035Z,98680.44
2022-08-26T22:13:46.141Z,98678.94
2022-08-26T22:16:13.322Z,98674.78
2022-08-26T22:18:43.248Z,98680.56
2022-08-26T22:21:10.759Z,98685.31
2022-08-26T22:23:38.286Z,98685.72
2022-08-26T22:26:08.342Z,98686.09
2022-08-26T22:28:35.572Z,98680.47
2022-08-26T22:31:02.115Z,98678.81
2022-08-26T22:33:29.057Z,98686.22
2022-08-26T22:35:55.755Z,98694.69
2022-08-26T22:38:23.942Z,98697.16
2022-08-26T22:40:51.886Z,98694.84
2022-08-26T22:43:18.976Z,98690.03
2022-08-26T22:45:47.226Z,98687.50
2022-08-26T22:48:15.648Z,98687.91
2022-08-26T22:50:42.671Z,98687.91
2022-08-26T22:53:09.533Z,98692.22
2022-08-26T22:55:36.158Z,98693.22
2022-08-26T22:58:03.123Z,98683.91
2022-08-26T23:00:32.105Z,98679.78
2022-08-26T23:02:59.576Z,98672.91
2022-08-26T23:05:26.098Z,98671.25
2022-08-26T23:07:52.688Z,98669.56
2022-08-26T23:10:19.188Z,98671.25
2022-08-26T23:12:45.703Z,98672.25
2022-08-26T23:15:12.605Z,98672.91
2022-08-26T23:17:39.310Z,98675.78
2022-08-26T23:20:08.545Z,98671.91
2022-08-26T23:22:35.255Z,98664.25
2022-08-26T23:25:02.511Z,98661.78
2022-08-26T23:27:35.541Z,98660.94
2022-08-26T23:30:02.459Z,98663.41
2022-08-26T23:32:28.959Z,98658.03
2022-08-26T23:35:01.476Z,98659.09
2022-08-26T23:37:31.522Z,98651.47
2022-08-26T23:39:59.226Z,98659.78
2022-08-26T23:42:25.771Z,98655.22
2022-08-26T23:44:55.659Z,98659.78
2022-08-26T23:47:22.168Z,98655.22
2022-08-26T23:49:48.656Z,98661.09
2022-08-26T23:52:33.949Z,98652.53
2022-08-26T23:55:00.449Z,98658.09
2022-08-26T23:57:26.927Z,98649.84
2022-08-26T23:59:53.563Z,98643.63
